sensor_id;sensor_type;location;lat;lon;timestamp;temperature;humidity
39899;DHT22;25571;47.876;10.642;2023-02-11T00:01:10;1.00;85.40
39899;DHT22;25571;47.876;10.642;2023-02-11T00:03:37;1.00;86.20
39899;DHT22;25571;47.876;10.642;2023-02-11T00:06:05;0.90;86.00
39899;DHT22;25571;47.876;10.642;2023-02-11T00:08:34;0.90;86.90
39899;DHT22;25571;47.876;10.642;2023-02-11T00:10:59;0.80;87.00
39899;DHT22;25571;47.876;10.642;2023-02-11T00:13:25;0.90;87.80
39899;DHT22;25571;47.876;10.642;2023-02-11T00:15:51;0.90;87.00
39899;DHT22;25571;47.876;10.642;2023-02-11T00:18:17;0.90;86.80
39899;DHT22;25571;47.876;10.642;2023-02-11T00:20:43;0.90;86.50
39899;DHT22;25571;47.876;10.642;2023-02-11T00:23:08;0.90;86.10
39899;DHT22;25571;47.876;10.642;2023-02-11T00:25:39;1.00;86.40
39899;DHT22;25571;47.876;10.642;2023-02-11T00:28:05;1.00;85.80
39899;DHT22;25571;47.876;10.642;2023-02-11T00:30:30;1.00;85.20
39899;DHT22;25571;47.876;10.642;2023-02-11T00:32:56;1.00;85.10
39899;DHT22;25571;47.876;10.642;2023-02-11T00:35:21;1.00;85.00
39899;DHT22;25571;47.876;10.642;2023-02-11T00:37:47;1.00;84.60
39899;DHT22;25571;47.876;10.642;2023-02-11T00:40:14;1.00;84.90
39899;DHT22;25571;47.876;10.642;2023-02-11T00:42:41;1.00;85.00
39899;DHT22;25571;47.876;10.642;2023-02-11T00:45:06;1.00;84.90
39899;DHT22;25571;47.876;10.642;2023-02-11T00:47:34;1.00;83.80
39899;DHT22;25571;47.876;10.642;2023-02-11T00:50:00;1.00;82.80
39899;DHT22;25571;47.876;10.642;2023-02-11T00:52:26;0.90;83.00
39899;DHT22;25571;47.876;10.642;2023-02-11T00:54:52;0.90;82.80
39899;DHT22;25571;47.876;10.642;2023-02-11T00:57:17;0.90;82.60
39899;DHT22;25571;47.876;10.642;2023-02-11T00:59:43;0.90;82.20
39899;DHT22;25571;47.876;10.642;2023-02-11T01:02:08;0.80;82.30
39899;DHT22;25571;47.876;10.642;2023-02-11T01:04:34;0.80;82.60
39899;DHT22;25571;47.876;10.642;2023-02-11T01:06:59;0.80;83.70
39899;DHT22;25571;47.876;10.642;2023-02-11T01:09:25;0.80;84.30
39899;DHT22;25571;47.876;10.642;2023-02-11T01:11:51;0.70;84.40
39899;DHT22;25571;47.876;10.642;2023-02-11T01:14:16;0.70;84.50
39899;DHT22;25571;47.876;10.642;2023-02-11T01:16:42;0.70;84.00
39899;DHT22;25571;47.876;10.642;2023-02-11T01:19:08;0.70;84.00
39899;DHT22;25571;47.876;10.642;2023-02-11T01:21:33;0.60;84.30
39899;DHT22;25571;47.876;10.642;2023-02-11T01:23:59;0.60;84.50
39899;DHT22;25571;47.876;10.642;2023-02-11T01:26:25;0.60;84.30
39899;DHT22;25571;47.876;10.642;2023-02-11T01:28:50;0.60;83.70
39899;DHT22;25571;47.876;10.642;2023-02-11T01:31:16;0.60;84.10
39899;DHT22;25571;47.876;10.642;2023-02-11T01:33:41;0.50;84.30
39899;DHT22;25571;47.876;10.642;2023-02-11T01:36:08;0.50;84.50
39899;DHT22;25571;47.876;10.642;2023-02-11T01:38:33;0.50;84.50
39899;DHT22;25571;47.876;10.642;2023-02-11T01:41:10;0.50;84.30
39899;DHT22;25571;47.876;10.642;2023-02-11T01:43:40;0.50;84.00
39899;DHT22;25571;47.876;10.642;2023-02-11T01:46:32;0.40;84.10
39899;DHT22;25571;47.876;10.642;2023-02-11T01:51:55;0.40;85.50
39899;DHT22;25571;47.876;10.642;2023-02-11T01:54:25;0.40;85.80
39899;DHT22;25571;47.876;10.642;2023-02-11T01:57:12;0.40;85.20
39899;DHT22;25571;47.876;10.642;2023-02-11T02:05:16;0.40;84.60
39899;DHT22;25571;47.876;10.642;2023-02-11T02:07:45;0.30;84.30
39899;DHT22;25571;47.876;10.642;2023-02-11T02:10:18;0.40;84.40
39899;DHT22;25571;47.876;10.642;2023-02-11T02:12:44;0.30;84.20
39899;DHT22;25571;47.876;10.642;2023-02-11T02:15:33;0.30;84.10
39899;DHT22;25571;47.876;10.642;2023-02-11T02:38:04;0.10;83.60
39899;DHT22;25571;47.876;10.642;2023-02-11T02:43:04;0.10;83.60
39899;DHT22;25571;47.876;10.642;2023-02-11T02:45:31;0.10;83.40
39899;DHT22;25571;47.876;10.642;2023-02-11T02:47:57;0.10;83.90
39899;DHT22;25571;47.876;10.642;2023-02-11T02:50:27;0.10;83.60
39899;DHT22;25571;47.876;10.642;2023-02-11T02:53:19;0.10;83.50
39899;DHT22;25571;47.876;10.642;2023-02-11T02:56:05;0.10;83.50
39899;DHT22;25571;47.876;10.642;2023-02-11T02:58:42;0.10;83.50
39899;DHT22;25571;47.876;10.642;2023-02-11T03:04:29;0.00;82.50
39899;DHT22;25571;47.876;10.642;2023-02-11T03:07:04;-0.10;81.60
39899;DHT22;25571;47.876;10.642;2023-02-11T03:09:45;-0.10;82.00
39899;DHT22;25571;47.876;10.642;2023-02-11T03:12:13;-0.20;82.50
39899;DHT22;25571;47.876;10.642;2023-02-11T03:14:40;-0.20;83.00
39899;DHT22;25571;47.876;10.642;2023-02-11T03:17:07;-0.20;83.00
39899;DHT22;25571;47.876;10.642;2023-02-11T03:19:37;-0.20;81.90
39899;DHT22;25571;47.876;10.642;2023-02-11T03:22:07;-0.20;81.40
39899;DHT22;25571;47.876;10.642;2023-02-11T03:24:36;-0.20;81.50
39899;DHT22;25571;47.876;10.642;2023-02-11T03:27:20;-0.30;82.30
39899;DHT22;25571;47.876;10.642;2023-02-11T03:30:07;-0.30;84.00
39899;DHT22;25571;47.876;10.642;2023-02-11T03:32:38;-0.40;84.30
39899;DHT22;25571;47.876;10.642;2023-02-11T03:38:41;-0.40;85.00
39899;DHT22;25571;47.876;10.642;2023-02-11T03:40:42;-0.40;84.70
39899;DHT22;25571;47.876;10.642;2023-02-11T03:43:32;-0.40;84.40
39899;DHT22;25571;47.876;10.642;2023-02-11T03:45:58;-0.40;83.90
39899;DHT22;25571;47.876;10.642;2023-02-11T03:48:33;-0.40;84.30
39899;DHT22;25571;47.876;10.642;2023-02-11T03:51:03;-0.40;85.00
39899;DHT22;25571;47.876;10.642;2023-02-11T03:53:30;-0.40;84.90
39899;DHT22;25571;47.876;10.642;2023-02-11T03:55:57;-0.50;84.50
39899;DHT22;25571;47.876;10.642;2023-02-11T03:58:24;-0.50;84.80
39899;DHT22;25571;47.876;10.642;2023-02-11T04:00:50;-0.40;85.30
39899;DHT22;25571;47.876;10.642;2023-02-11T04:03:16;-0.40;85.00
39899;DHT22;25571;47.876;10.642;2023-02-11T04:05:41;-0.40;84.80
39899;DHT22;25571;47.876;10.642;2023-02-11T04:08:07;-0.40;85.40
39899;DHT22;25571;47.876;10.642;2023-02-11T04:10:33;-0.40;85.60
39899;DHT22;25571;47.876;10.642;2023-02-11T04:12:58;-0.30;85.80
39899;DHT22;25571;47.876;10.642;2023-02-11T04:15:24;-0.30;85.60
39899;DHT22;25571;47.876;10.642;2023-02-11T04:17:50;-0.30;85.20
39899;DHT22;25571;47.876;10.642;2023-02-11T04:20:16;-0.20;84.80
39899;DHT22;25571;47.876;10.642;2023-02-11T04:22:41;-0.20;84.10
39899;DHT22;25571;47.876;10.642;2023-02-11T04:25:08;-0.30;84.20
39899;DHT22;25571;47.876;10.642;2023-02-11T04:27:34;-0.30;84.30
39899;DHT22;25571;47.876;10.642;2023-02-11T04:30:00;-0.30;84.80
39899;DHT22;25571;47.876;10.642;2023-02-11T04:32:25;-0.20;84.90
39899;DHT22;25571;47.876;10.642;2023-02-11T04:34:51;-0.20;84.70
39899;DHT22;25571;47.876;10.642;2023-02-11T04:37:17;-0.20;84.80
39899;DHT22;25571;47.876;10.642;2023-02-11T04:39:42;-0.20;84.50
39899;DHT22;25571;47.876;10.642;2023-02-11T04:42:08;-0.10;84.60
39899;DHT22;25571;47.876;10.642;2023-02-11T04:44:34;-0.10;84.50
39899;DHT22;25571;47.876;10.642;2023-02-11T04:46:59;-0.10;84.50
39899;DHT22;25571;47.876;10.642;2023-02-11T04:49:25;-0.10;84.40
39899;DHT22;25571;47.876;10.642;2023-02-11T04:51:51;-0.10;84.30
39899;DHT22;25571;47.876;10.642;2023-02-11T04:54:17;-0.10;84.30
39899;DHT22;25571;47.876;10.642;2023-02-11T04:56:43;-0.10;84.10
39899;DHT22;25571;47.876;10.642;2023-02-11T04:59:09;-0.10;84.40
39899;DHT22;25571;47.876;10.642;2023-02-11T05:01:35;0.00;84.50
39899;DHT22;25571;47.876;10.642;2023-02-11T05:04:01;0.00;84.50
39899;DHT22;25571;47.876;10.642;2023-02-11T05:06:27;0.00;84.40
39899;DHT22;25571;47.876;10.642;2023-02-11T05:08:52;0.00;84.40
39899;DHT22;25571;47.876;10.642;2023-02-11T05:11:20;0.10;84.30
39899;DHT22;25571;47.876;10.642;2023-02-11T05:13:46;0.10;84.00
39899;DHT22;25571;47.876;10.642;2023-02-11T05:16:13;0.10;83.70
39899;DHT22;25571;47.876;10.642;2023-02-11T05:18:40;0.10;83.40
39899;DHT22;25571;47.876;10.642;2023-02-11T05:21:12;0.10;83.20
39899;DHT22;25571;47.876;10.642;2023-02-11T05:23:38;0.00;83.40
39899;DHT22;25571;47.876;10.642;2023-02-11T05:26:04;0.10;83.10
39899;DHT22;25571;47.876;10.642;2023-02-11T05:28:30;0.10;82.90
39899;DHT22;25571;47.876;10.642;2023-02-11T05:30:56;0.10;83.00
39899;DHT22;25571;47.876;10.642;2023-02-11T05:33:22;0.10;83.20
39899;DHT22;25571;47.876;10.642;2023-02-11T05:35:47;0.10;83.20
39899;DHT22;25571;47.876;10.642;2023-02-11T05:38:13;0.10;83.20
39899;DHT22;25571;47.876;10.642;2023-02-11T05:40:39;0.10;83.10
39899;DHT22;25571;47.876;10.642;2023-02-11T05:43:05;0.10;83.00
39899;DHT22;25571;47.876;10.642;2023-02-11T05:45:31;0.20;83.30
39899;DHT22;25571;47.876;10.642;2023-02-11T05:47:57;0.20;83.10
39899;DHT22;25571;47.876;10.642;2023-02-11T05:50:22;0.20;83.00
39899;DHT22;25571;47.876;10.642;2023-02-11T05:52:48;0.20;83.40
39899;DHT22;25571;47.876;10.642;2023-02-11T05:55:14;0.30;84.20
39899;DHT22;25571;47.876;10.642;2023-02-11T05:57:40;0.30;83.30
39899;DHT22;25571;47.876;10.642;2023-02-11T06:00:06;0.30;83.30
39899;DHT22;25571;47.876;10.642;2023-02-11T06:02:32;0.30;83.30
39899;DHT22;25571;47.876;10.642;2023-02-11T06:04:58;0.30;83.40
39899;DHT22;25571;47.876;10.642;2023-02-11T06:07:23;0.30;83.10
39899;DHT22;25571;47.876;10.642;2023-02-11T06:09:49;0.40;83.20
39899;DHT22;25571;47.876;10.642;2023-02-11T06:12:15;0.40;83.50
39899;DHT22;25571;47.876;10.642;2023-02-11T06:14:40;0.40;83.70
39899;DHT22;25571;47.876;10.642;2023-02-11T06:17:06;0.40;83.60
39899;DHT22;25571;47.876;10.642;2023-02-11T06:19:32;0.40;83.90
39899;DHT22;25571;47.876;10.642;2023-02-11T06:21:57;0.40;83.40
39899;DHT22;25571;47.876;10.642;2023-02-11T06:24:23;0.50;83.00
39899;DHT22;25571;47.876;10.642;2023-02-11T06:26:49;0.50;82.80
39899;DHT22;25571;47.876;10.642;2023-02-11T06:29:15;0.50;82.10
39899;DHT22;25571;47.876;10.642;2023-02-11T06:31:41;0.50;81.90
39899;DHT22;25571;47.876;10.642;2023-02-11T06:34:07;0.50;82.10
39899;DHT22;25571;47.876;10.642;2023-02-11T06:36:33;0.50;82.20
39899;DHT22;25571;47.876;10.642;2023-02-11T06:38:59;0.50;82.20
39899;DHT22;25571;47.876;10.642;2023-02-11T06:41:25;0.50;82.50
39899;DHT22;25571;47.876;10.642;2023-02-11T06:43:52;0.50;83.00
39899;DHT22;25571;47.876;10.642;2023-02-11T06:46:17;0.50;82.10
39899;DHT22;25571;47.876;10.642;2023-02-11T06:48:43;0.50;82.40
39899;DHT22;25571;47.876;10.642;2023-02-11T06:51:10;0.50;81.00
39899;DHT22;25571;47.876;10.642;2023-02-11T06:53:39;0.40;81.30
39899;DHT22;25571;47.876;10.642;2023-02-11T06:56:07;0.50;82.00
39899;DHT22;25571;47.876;10.642;2023-02-11T06:58:33;0.50;81.50
39899;DHT22;25571;47.876;10.642;2023-02-11T07:01:00;0.50;81.50
39899;DHT22;25571;47.876;10.642;2023-02-11T07:03:28;0.60;82.40
39899;DHT22;25571;47.876;10.642;2023-02-11T07:05:53;0.60;82.00
39899;DHT22;25571;47.876;10.642;2023-02-11T07:08:19;0.70;82.80
39899;DHT22;25571;47.876;10.642;2023-02-11T07:10:44;0.70;83.00
39899;DHT22;25571;47.876;10.642;2023-02-11T07:13:10;0.80;83.00
39899;DHT22;25571;47.876;10.642;2023-02-11T07:15:36;0.80;82.10
39899;DHT22;25571;47.876;10.642;2023-02-11T07:18:02;0.80;81.20
39899;DHT22;25571;47.876;10.642;2023-02-11T07:20:28;0.90;81.20
39899;DHT22;25571;47.876;10.642;2023-02-11T07:22:54;0.90;81.40
39899;DHT22;25571;47.876;10.642;2023-02-11T07:25:19;0.90;81.50
39899;DHT22;25571;47.876;10.642;2023-02-11T07:27:45;0.90;81.60
39899;DHT22;25571;47.876;10.642;2023-02-11T07:30:11;1.00;81.10
39899;DHT22;25571;47.876;10.642;2023-02-11T07:32:37;1.00;80.40
39899;DHT22;25571;47.876;10.642;2023-02-11T07:35:03;1.00;80.90
39899;DHT22;25571;47.876;10.642;2023-02-11T07:37:29;1.10;81.30
39899;DHT22;25571;47.876;10.642;2023-02-11T07:39:57;1.10;80.90
39899;DHT22;25571;47.876;10.642;2023-02-11T07:42:23;1.10;81.00
39899;DHT22;25571;47.876;10.642;2023-02-11T07:44:48;1.10;81.50
39899;DHT22;25571;47.876;10.642;2023-02-11T07:47:14;1.20;81.70
39899;DHT22;25571;47.876;10.642;2023-02-11T07:49:39;1.20;82.30
39899;DHT22;25571;47.876;10.642;2023-02-11T07:52:05;1.20;82.30
39899;DHT22;25571;47.876;10.642;2023-02-11T07:54:31;1.30;83.30
39899;DHT22;25571;47.876;10.642;2023-02-11T07:56:56;1.30;83.20
39899;DHT22;25571;47.876;10.642;2023-02-11T07:59:23;1.30;83.40
39899;DHT22;25571;47.876;10.642;2023-02-11T08:01:49;1.40;83.80
39899;DHT22;25571;47.876;10.642;2023-02-11T08:04:16;1.40;84.20
39899;DHT22;25571;47.876;10.642;2023-02-11T08:06:42;1.50;84.50
39899;DHT22;25571;47.876;10.642;2023-02-11T08:09:12;1.50;83.40
39899;DHT22;25571;47.876;10.642;2023-02-11T08:11:38;1.60;83.50
39899;DHT22;25571;47.876;10.642;2023-02-11T08:14:04;1.70;83.20
39899;DHT22;25571;47.876;10.642;2023-02-11T08:16:34;1.70;83.20
39899;DHT22;25571;47.876;10.642;2023-02-11T08:19:04;1.80;83.20
39899;DHT22;25571;47.876;10.642;2023-02-11T08:21:29;1.90;83.10
39899;DHT22;25571;47.876;10.642;2023-02-11T08:23:55;1.90;82.30
39899;DHT22;25571;47.876;10.642;2023-02-11T08:26:24;2.20;81.00
39899;DHT22;25571;47.876;10.642;2023-02-11T08:28:52;2.30;80.70
39899;DHT22;25571;47.876;10.642;2023-02-11T08:31:21;2.70;80.70
39899;DHT22;25571;47.876;10.642;2023-02-11T08:33:48;3.50;79.60
39899;DHT22;25571;47.876;10.642;2023-02-11T08:36:17;4.10;78.60
39899;DHT22;25571;47.876;10.642;2023-02-11T08:38:43;5.00;76.10
39899;DHT22;25571;47.876;10.642;2023-02-11T08:41:10;4.90;73.00
39899;DHT22;25571;47.876;10.642;2023-02-11T08:43:36;4.90;71.20
39899;DHT22;25571;47.876;10.642;2023-02-11T08:46:06;4.90;71.90
39899;DHT22;25571;47.876;10.642;2023-02-11T08:48:32;4.80;72.50
39899;DHT22;25571;47.876;10.642;2023-02-11T08:50:57;4.90;72.10
39899;DHT22;25571;47.876;10.642;2023-02-11T08:53:23;5.00;72.20
39899;DHT22;25571;47.876;10.642;2023-02-11T08:55:50;4.90;73.70
39899;DHT22;25571;47.876;10.642;2023-02-11T08:58:16;4.80;72.00
39899;DHT22;25571;47.876;10.642;2023-02-11T09:00:42;4.70;72.70
39899;DHT22;25571;47.876;10.642;2023-02-11T09:03:12;4.60;73.10
39899;DHT22;25571;47.876;10.642;2023-02-11T09:05:45;4.50;73.00
39899;DHT22;25571;47.876;10.642;2023-02-11T09:08:11;4.50;73.70
39899;DHT22;25571;47.876;10.642;2023-02-11T09:10:37;4.50;74.30
39899;DHT22;25571;47.876;10.642;2023-02-11T09:13:03;4.40;73.80
39899;DHT22;25571;47.876;10.642;2023-02-11T09:15:29;4.40;73.40
39899;DHT22;25571;47.876;10.642;2023-02-11T09:17:55;4.30;73.90
39899;DHT22;25571;47.876;10.642;2023-02-11T09:20:21;4.30;74.20
39899;DHT22;25571;47.876;10.642;2023-02-11T09:22:47;4.30;75.60
39899;DHT22;25571;47.876;10.642;2023-02-11T09:25:12;4.20;75.70
39899;DHT22;25571;47.876;10.642;2023-02-11T09:27:38;4.20;75.90
39899;DHT22;25571;47.876;10.642;2023-02-11T09:30:04;4.10;76.40
39899;DHT22;25571;47.876;10.642;2023-02-11T09:32:30;4.10;76.20
39899;DHT22;25571;47.876;10.642;2023-02-11T09:34:55;4.10;76.70
39899;DHT22;25571;47.876;10.642;2023-02-11T09:37:21;4.00;75.80
39899;DHT22;25571;47.876;10.642;2023-02-11T09:39:47;4.10;75.20
39899;DHT22;25571;47.876;10.642;2023-02-11T09:42:19;4.10;75.20
39899;DHT22;25571;47.876;10.642;2023-02-11T09:44:50;4.20;75.00
39899;DHT22;25571;47.876;10.642;2023-02-11T09:50:09;4.30;75.30
39899;DHT22;25571;47.876;10.642;2023-02-11T09:53:03;4.40;75.80
39899;DHT22;25571;47.876;10.642;2023-02-11T09:55:33;4.40;75.40
39899;DHT22;25571;47.876;10.642;2023-02-11T09:58:06;4.50;74.80
39899;DHT22;25571;47.876;10.642;2023-02-11T10:00:49;4.50;74.70
39899;DHT22;25571;47.876;10.642;2023-02-11T10:09:41;4.60;74.20
39899;DHT22;25571;47.876;10.642;2023-02-11T10:22:54;5.10;76.60
39899;DHT22;25571;47.876;10.642;2023-02-11T10:27:47;5.50;76.00
39899;DHT22;25571;47.876;10.642;2023-02-11T10:30:29;5.60;74.30
39899;DHT22;25571;47.876;10.642;2023-02-11T10:33:03;5.80;73.60
39899;DHT22;25571;47.876;10.642;2023-02-11T10:35:31;5.90;74.00
39899;DHT22;25571;47.876;10.642;2023-02-11T10:37:58;6.00;74.80
39899;DHT22;25571;47.876;10.642;2023-02-11T10:40:27;6.10;73.40
39899;DHT22;25571;47.876;10.642;2023-02-11T10:42:55;6.20;73.00
39899;DHT22;25571;47.876;10.642;2023-02-11T10:45:35;6.30;73.10
39899;DHT22;25571;47.876;10.642;2023-02-11T10:48:35;6.30;73.50
39899;DHT22;25571;47.876;10.642;2023-02-11T10:54:05;6.50;73.00
39899;DHT22;25571;47.876;10.642;2023-02-11T10:56:47;6.60;70.70
39899;DHT22;25571;47.876;10.642;2023-02-11T10:59:27;6.70;70.10
39899;DHT22;25571;47.876;10.642;2023-02-11T11:01:57;6.80;70.00
39899;DHT22;25571;47.876;10.642;2023-02-11T11:04:32;6.80;69.40
39899;DHT22;25571;47.876;10.642;2023-02-11T11:09:57;7.00;69.50
39899;DHT22;25571;47.876;10.642;2023-02-11T11:14:55;7.10;67.40
39899;DHT22;25571;47.876;10.642;2023-02-11T11:17:21;7.20;67.40
39899;DHT22;25571;47.876;10.642;2023-02-11T11:19:46;7.20;66.20
39899;DHT22;25571;47.876;10.642;2023-02-11T11:22:20;7.30;66.40
39899;DHT22;25571;47.876;10.642;2023-02-11T11:24:47;7.40;63.10
39899;DHT22;25571;47.876;10.642;2023-02-11T11:27:22;7.50;64.40
39899;DHT22;25571;47.876;10.642;2023-02-11T11:29:51;7.60;65.50
39899;DHT22;25571;47.876;10.642;2023-02-11T11:32:21;7.60;65.80
39899;DHT22;25571;47.876;10.642;2023-02-11T11:34:55;7.70;63.70
39899;DHT22;25571;47.876;10.642;2023-02-11T11:37:31;7.70;63.70
39899;DHT22;25571;47.876;10.642;2023-02-11T11:40:10;7.70;64.60
39899;DHT22;25571;47.876;10.642;2023-02-11T11:42:46;7.80;65.20
39899;DHT22;25571;47.876;10.642;2023-02-11T11:45:26;7.80;65.60
39899;DHT22;25571;47.876;10.642;2023-02-11T11:50:31;7.90;65.10
39899;DHT22;25571;47.876;10.642;2023-02-11T11:53:09;7.90;66.40
39899;DHT22;25571;47.876;10.642;2023-02-11T11:58:21;8.00;65.50
39899;DHT22;25571;47.876;10.642;2023-02-11T12:00:52;8.00;66.10
39899;DHT22;25571;47.876;10.642;2023-02-11T12:03:56;8.10;66.30
39899;DHT22;25571;47.876;10.642;2023-02-11T12:09:28;8.20;65.30
39899;DHT22;25571;47.876;10.642;2023-02-11T12:20:14;8.40;64.10
39899;DHT22;25571;47.876;10.642;2023-02-11T12:22:55;8.40;64.00
39899;DHT22;25571;47.876;10.642;2023-02-11T12:29:07;8.40;65.60
39899;DHT22;25571;47.876;10.642;2023-02-11T12:31:13;8.50;63.50
39899;DHT22;25571;47.876;10.642;2023-02-11T12:37:10;8.60;63.30
39899;DHT22;25571;47.876;10.642;2023-02-11T12:42:46;8.70;63.70
39899;DHT22;25571;47.876;10.642;2023-02-11T12:46:09;8.70;63.60
39899;DHT22;25571;47.876;10.642;2023-02-11T12:57:05;9.00;61.20
39899;DHT22;25571;47.876;10.642;2023-02-11T12:59:46;9.10;62.70
39899;DHT22;25571;47.876;10.642;2023-02-11T13:02:43;9.10;63.90
39899;DHT22;25571;47.876;10.642;2023-02-11T13:05:39;9.20;63.60
39899;DHT22;25571;47.876;10.642;2023-02-11T13:08:14;9.20;62.40
39899;DHT22;25571;47.876;10.642;2023-02-11T13:10:46;9.30;62.20
39899;DHT22;25571;47.876;10.642;2023-02-11T13:13:21;9.30;61.50
39899;DHT22;25571;47.876;10.642;2023-02-11T13:16:05;9.40;62.40
39899;DHT22;25571;47.876;10.642;2023-02-11T13:21:18;9.50;59.40
39899;DHT22;25571;47.876;10.642;2023-02-11T13:32:11;9.60;58.90
39899;DHT22;25571;47.876;10.642;2023-02-11T13:37:33;9.70;54.90
39899;DHT22;25571;47.876;10.642;2023-02-11T13:40:20;9.70;57.50
39899;DHT22;25571;47.876;10.642;2023-02-11T13:42:54;9.70;57.10
39899;DHT22;25571;47.876;10.642;2023-02-11T13:45:42;9.70;56.20
39899;DHT22;25571;47.876;10.642;2023-02-11T13:50:57;9.80;57.70
39899;DHT22;25571;47.876;10.642;2023-02-11T13:53:23;9.80;55.80
39899;DHT22;25571;47.876;10.642;2023-02-11T13:55:53;9.80;56.30
39899;DHT22;25571;47.876;10.642;2023-02-11T14:00:54;9.80;53.30
39899;DHT22;25571;47.876;10.642;2023-02-11T14:03:36;9.80;52.10
39899;DHT22;25571;47.876;10.642;2023-02-11T14:06:26;9.80;52.50
39899;DHT22;25571;47.876;10.642;2023-02-11T14:11:48;9.90;54.00
39899;DHT22;25571;47.876;10.642;2023-02-11T14:14:26;9.90;54.60
39899;DHT22;25571;47.876;10.642;2023-02-11T14:22:28;10.10;51.60
39899;DHT22;25571;47.876;10.642;2023-02-11T14:25:03;10.10;54.10
39899;DHT22;25571;47.876;10.642;2023-02-11T14:27:41;10.10;54.10
39899;DHT22;25571;47.876;10.642;2023-02-11T14:30:32;10.20;53.60
39899;DHT22;25571;47.876;10.642;2023-02-11T14:43:50;10.30;53.70
39899;DHT22;25571;47.876;10.642;2023-02-11T14:46:18;10.30;53.50
39899;DHT22;25571;47.876;10.642;2023-02-11T14:48:49;10.30;54.00
39899;DHT22;25571;47.876;10.642;2023-02-11T14:51:31;10.30;53.30
39899;DHT22;25571;47.876;10.642;2023-02-11T14:54:23;10.30;53.90
39899;DHT22;25571;47.876;10.642;2023-02-11T14:57:13;10.30;53.30
39899;DHT22;25571;47.876;10.642;2023-02-11T14:59:51;10.30;52.10
39899;DHT22;25571;47.876;10.642;2023-02-11T15:02:22;10.30;52.00
39899;DHT22;25571;47.876;10.642;2023-02-11T15:04:48;10.20;49.50
39899;DHT22;25571;47.876;10.642;2023-02-11T15:07:14;10.20;50.80
39899;DHT22;25571;47.876;10.642;2023-02-11T15:09:51;10.20;51.50
39899;DHT22;25571;47.876;10.642;2023-02-11T15:12:25;10.30;52.30
39899;DHT22;25571;47.876;10.642;2023-02-11T15:14:56;10.20;52.00
39899;DHT22;25571;47.876;10.642;2023-02-11T15:17:26;10.20;52.90
39899;DHT22;25571;47.876;10.642;2023-02-11T15:19:54;10.20;51.80
39899;DHT22;25571;47.876;10.642;2023-02-11T15:22:29;10.20;52.80
39899;DHT22;25571;47.876;10.642;2023-02-11T15:25:01;10.20;54.30
39899;DHT22;25571;47.876;10.642;2023-02-11T15:27:40;10.20;53.50
39899;DHT22;25571;47.876;10.642;2023-02-11T15:30:28;10.20;54.00
39899;DHT22;25571;47.876;10.642;2023-02-11T15:32:59;10.20;53.70
39899;DHT22;25571;47.876;10.642;2023-02-11T15:35:38;10.10;53.70
39899;DHT22;25571;47.876;10.642;2023-02-11T15:38:06;10.10;54.20
39899;DHT22;25571;47.876;10.642;2023-02-11T15:40:34;10.10;55.60
39899;DHT22;25571;47.876;10.642;2023-02-11T15:43:08;10.00;55.40
39899;DHT22;25571;47.876;10.642;2023-02-11T15:45:37;10.00;55.00
39899;DHT22;25571;47.876;10.642;2023-02-11T15:48:18;9.90;54.50
39899;DHT22;25571;47.876;10.642;2023-02-11T15:50:57;9.90;53.80
39899;DHT22;25571;47.876;10.642;2023-02-11T15:53:35;9.90;55.70
39899;DHT22;25571;47.876;10.642;2023-02-11T15:58:42;9.80;55.70
39899;DHT22;25571;47.876;10.642;2023-02-11T16:01:09;9.70;56.90
39899;DHT22;25571;47.876;10.642;2023-02-11T16:03:35;9.70;57.80
39899;DHT22;25571;47.876;10.642;2023-02-11T16:06:36;9.70;58.40
39899;DHT22;25571;47.876;10.642;2023-02-11T16:11:35;9.60;58.70
39899;DHT22;25571;47.876;10.642;2023-02-11T16:14:15;9.50;58.50
39899;DHT22;25571;47.876;10.642;2023-02-11T16:16:45;9.40;59.30
39899;DHT22;25571;47.876;10.642;2023-02-11T16:19:17;9.40;60.70
39899;DHT22;25571;47.876;10.642;2023-02-11T16:21:43;9.30;59.90
39899;DHT22;25571;47.876;10.642;2023-02-11T16:24:27;9.20;59.70
39899;DHT22;25571;47.876;10.642;2023-02-11T16:26:59;9.10;60.20
39899;DHT22;25571;47.876;10.642;2023-02-11T16:29:27;9.20;59.80
39899;DHT22;25571;47.876;10.642;2023-02-11T16:32:17;9.00;61.70
39899;DHT22;25571;47.876;10.642;2023-02-11T16:34:43;9.00;61.20
39899;DHT22;25571;47.876;10.642;2023-02-11T16:37:09;8.80;62.60
39899;DHT22;25571;47.876;10.642;2023-02-11T16:39:34;8.70;63.30
39899;DHT22;25571;47.876;10.642;2023-02-11T16:42:00;8.70;64.30
39899;DHT22;25571;47.876;10.642;2023-02-11T16:44:27;8.60;64.70
39899;DHT22;25571;47.876;10.642;2023-02-11T16:46:53;8.50;65.20
39899;DHT22;25571;47.876;10.642;2023-02-11T16:49:26;8.50;65.60
39899;DHT22;25571;47.876;10.642;2023-02-11T16:51:54;8.40;65.70
39899;DHT22;25571;47.876;10.642;2023-02-11T16:54:22;8.40;65.90
39899;DHT22;25571;47.876;10.642;2023-02-11T16:56:48;8.40;66.60
39899;DHT22;25571;47.876;10.642;2023-02-11T16:59:14;8.30;67.00
39899;DHT22;25571;47.876;10.642;2023-02-11T17:01:41;8.30;67.40
39899;DHT22;25571;47.876;10.642;2023-02-11T17:04:20;8.20;67.30
39899;DHT22;25571;47.876;10.642;2023-02-11T17:06:48;8.20;67.80
39899;DHT22;25571;47.876;10.642;2023-02-11T17:09:17;8.10;69.00
39899;DHT22;25571;47.876;10.642;2023-02-11T17:11:43;8.10;68.60
39899;DHT22;25571;47.876;10.642;2023-02-11T17:14:09;8.00;68.90
39899;DHT22;25571;47.876;10.642;2023-02-11T17:16:35;8.00;68.90
39899;DHT22;25571;47.876;10.642;2023-02-11T17:19:00;7.90;69.10
39899;DHT22;25571;47.876;10.642;2023-02-11T17:21:28;7.90;69.00
39899;DHT22;25571;47.876;10.642;2023-02-11T17:23:56;7.90;69.60
39899;DHT22;25571;47.876;10.642;2023-02-11T17:26:22;7.90;69.70
39899;DHT22;25571;47.876;10.642;2023-02-11T17:28:48;7.80;69.10
39899;DHT22;25571;47.876;10.642;2023-02-11T17:31:13;7.80;68.60
39899;DHT22;25571;47.876;10.642;2023-02-11T17:33:39;7.80;69.00
39899;DHT22;25571;47.876;10.642;2023-02-11T17:36:06;7.70;68.70
39899;DHT22;25571;47.876;10.642;2023-02-11T17:38:33;7.70;68.70
39899;DHT22;25571;47.876;10.642;2023-02-11T17:40:59;7.70;68.80
39899;DHT22;25571;47.876;10.642;2023-02-11T17:43:25;7.70;69.20
39899;DHT22;25571;47.876;10.642;2023-02-11T17:45:51;7.70;69.70
39899;DHT22;25571;47.876;10.642;2023-02-11T17:48:17;7.60;69.90
39899;DHT22;25571;47.876;10.642;2023-02-11T17:50:42;7.60;70.10
39899;DHT22;25571;47.876;10.642;2023-02-11T17:53:08;7.60;70.70
39899;DHT22;25571;47.876;10.642;2023-02-11T17:55:34;7.60;71.00
39899;DHT22;25571;47.876;10.642;2023-02-11T17:58:00;7.50;72.50
39899;DHT22;25571;47.876;10.642;2023-02-11T18:00:26;7.50;73.60
39899;DHT22;25571;47.876;10.642;2023-02-11T18:02:53;7.40;73.50
39899;DHT22;25571;47.876;10.642;2023-02-11T18:05:19;7.40;73.70
39899;DHT22;25571;47.876;10.642;2023-02-11T18:07:45;7.30;73.50
39899;DHT22;25571;47.876;10.642;2023-02-11T18:10:12;7.30;74.10